createdAt,value
2019-04-20T00:00:07.913Z,10.68
2019-04-20T00:01:35.959Z,10.58
2019-04-20T00:02:58.508Z,10.53
2019-04-20T00:04:32.344Z,10.58
2019-04-20T00:05:46.353Z,10.45
2019-04-20T00:07:01.899Z,10.49
2019-04-20T00:08:29.366Z,10.34
2019-04-20T00:10:15.473Z,10.36
2019-04-20T00:12:06.671Z,10.31
2019-04-20T00:14:12.358Z,10.21
2019-04-20T00:15:37.328Z,10.13
2019-04-20T00:16:49.009Z,10.1
2019-04-20T00:18:10.469Z,10
2019-04-20T00:19:47.387Z,10
2019-04-20T00:21:19.178Z,9.97
2019-04-20T00:22:52.309Z,9.92
2019-04-20T00:24:30.932Z,9.92
2019-04-20T00:26:21.866Z,9.97
2019-04-20T00:29:49.247Z,9.9
2019-04-20T00:32:37.296Z,9.88
2019-04-20T00:34:38.816Z,9.8
2019-04-20T00:35:56.809Z,9.72
2019-04-20T00:37:11.249Z,9.69
2019-04-20T00:38:26.809Z,9.73
2019-04-20T00:40:00.026Z,9.72
2019-04-20T00:41:21.056Z,9.72
2019-04-20T00:42:54.862Z,9.67
2019-04-20T00:44:30.261Z,9.62
2019-04-20T00:46:21.740Z,9.59
2019-04-20T00:48:53.363Z,9.45
2019-04-20T00:51:38.947Z,9.45
2019-04-20T00:54:02.216Z,9.31
2019-04-20T00:55:15.273Z,9.37
2019-04-20T00:56:27.206Z,9.37
2019-04-20T00:58:05.482Z,9.42
2019-04-20T01:00:40.414Z,9.4
2019-04-20T01:03:33.692Z,9.42
2019-04-20T01:06:46.172Z,9.31
2019-04-20T01:08:32.285Z,9.24
2019-04-20T01:09:43.998Z,9.3
2019-04-20T01:11:04.139Z,9.21
2019-04-20T01:12:31.664Z,9.18
2019-04-20T01:14:07.759Z,9.15
2019-04-20T01:15:58.689Z,9.15
2019-04-20T01:17:44.190Z,9.09
2019-04-20T01:18:54.167Z,9.16
2019-04-20T01:20:03.848Z,9.03
2019-04-20T01:21:28.136Z,9.12
2019-04-20T01:23:07.328Z,9.02
2019-04-20T01:24:48.213Z,9
2019-04-20T01:26:22.299Z,8.96
2019-04-20T01:28:27.333Z,8.87
2019-04-20T01:30:39.428Z,8.93
2019-04-20T01:33:12.320Z,8.92
2019-04-20T01:35:48.715Z,8.97
2019-04-20T01:38:56.134Z,8.86
2019-04-20T01:40:38.596Z,8.86
2019-04-20T01:41:50.280Z,8.86
2019-04-20T01:43:03.340Z,8.86
2019-04-20T01:44:17.927Z,8.79
2019-04-20T01:45:56.616Z,8.77
2019-04-20T01:47:50.622Z,8.75
2019-04-20T01:49:26.152Z,8.81
2019-04-20T01:51:13.968Z,8.79
2019-04-20T01:53:23.204Z,8.68
2019-04-20T01:56:27.186Z,8.66
2019-04-20T01:59:15.654Z,8.64
2019-04-20T02:01:20.935Z,8.68
2019-04-20T02:03:03.621Z,8.66
2019-04-20T02:04:39.335Z,8.64
2019-04-20T02:06:18.157Z,8.63
2019-04-20T02:07:52.043Z,8.66
2019-04-20T02:09:24.573Z,8.57
2019-04-20T02:11:06.127Z,8.59
2019-04-20T02:12:48.787Z,8.56
2019-04-20T02:14:28.520Z,8.46
2019-04-20T02:16:22.471Z,8.46
2019-04-20T02:18:39.857Z,8.45
2019-04-20T02:21:37.652Z,8.35
2019-04-20T02:23:54.547Z,8.39
2019-04-20T02:25:16.220Z,8.35
2019-04-20T02:26:26.647Z,8.36
2019-04-20T02:28:07.571Z,8.34
2019-04-20T02:37:07.517Z,8.18
2019-04-20T02:41:57.092Z,8.17
2019-04-20T02:46:14.570Z,8.08
2019-04-20T02:50:58.187Z,8.02
2019-04-20T03:02:31.190Z,7.85
2019-04-20T03:04:53.689Z,7.74
2019-04-20T03:07:30.253Z,7.75
2019-04-20T03:10:52.227Z,7.62
2019-04-20T03:14:34.544Z,7.55
2019-04-20T03:17:50.639Z,7.58
2019-04-20T03:20:51.758Z,7.46
2019-04-20T03:24:30.871Z,7.37
2019-04-20T03:27:48.714Z,7.28
2019-04-20T03:37:48.154Z,7.18
2019-04-20T03:40:45.089Z,7.15
2019-04-20T03:42:22.500Z,7.03
2019-04-20T03:43:34.850Z,7.03
2019-04-20T03:45:07.470Z,7.01
2019-04-20T03:46:55.389Z,6.97
2019-04-20T03:49:18.239Z,6.96
2019-04-20T03:52:46.733Z,6.89
2019-04-20T03:55:56.227Z,6.9
2019-04-20T03:59:04.347Z,6.86
2019-04-20T04:03:01.285Z,6.72
2019-04-20T04:06:09.434Z,6.67
2019-04-20T04:08:27.546Z,6.72
2019-04-20T04:11:01.338Z,6.67
2019-04-20T04:12:59.191Z,6.62
2019-04-20T04:14:11.875Z,6.64
2019-04-20T04:15:23.803Z,6.56
2019-04-20T04:16:55.961Z,6.57
2019-04-20T04:18:38.584Z,6.59
2019-04-20T04:20:31.446Z,6.56
2019-04-20T04:23:09.828Z,6.6
2019-04-20T04:25:59.098Z,6.5
2019-04-20T04:28:47.305Z,6.5
2019-04-20T04:32:18.540Z,6.5
2019-04-20T04:35:51.213Z,6.46
2019-04-20T04:39:02.420Z,6.52
2019-04-20T04:42:27.501Z,6.47
2019-04-20T04:45:08.023Z,6.54
2019-04-20T04:46:33.752Z,6.5
2019-04-20T04:48:06.618Z,6.5
2019-04-20T04:49:59.867Z,6.56
2019-04-20T04:52:00.987Z,6.54
2019-04-20T04:54:12.823Z,6.52
2019-04-20T04:56:13.062Z,6.52
2019-04-20T04:57:33.061Z,6.52
2019-04-20T04:58:46.509Z,6.6
2019-04-20T04:59:59.209Z,6.56
2019-04-20T05:01:28.512Z,6.59
2019-04-20T05:03:00.846Z,6.53
2019-04-20T05:06:05.911Z,6.59
2019-04-20T05:08:34.351Z,6.57
2019-04-20T05:10:03.719Z,6.57
2019-04-20T05:11:17.172Z,6.6
2019-04-20T05:12:37.132Z,6.6
2019-04-20T05:14:09.030Z,6.67
2019-04-20T05:16:40.799Z,6.75
2019-04-20T05:20:09.126Z,6.7
2019-04-20T05:23:16.139Z,6.71
2019-04-20T05:26:24.863Z,6.8
2019-04-20T05:29:10.432Z,6.77
2019-04-20T05:30:54.494Z,6.86
2019-04-20T05:32:46.800Z,6.87
2019-04-20T05:35:30.459Z,6.92
2019-04-20T05:39:14.248Z,6.92
2019-04-20T05:42:35.414Z,7.04
2019-04-20T05:45:37.873Z,7.04
2019-04-20T05:48:38.056Z,7.1
2019-04-20T05:51:52.421Z,7.22
2019-04-20T05:55:32.859Z,7.21
2019-04-20T05:58:59.287Z,7.31
2019-04-20T06:02:31.461Z,7.29
2019-04-20T06:06:03.078Z,7.44
2019-04-20T06:09:59.273Z,7.53
2019-04-20T06:13:14.541Z,7.64
2019-04-20T06:16:07.194Z,7.75
2019-04-20T06:19:35.295Z,7.74
2019-04-20T06:23:23.501Z,8.01
2019-04-20T06:27:14.248Z,8.02
2019-04-20T06:30:18.744Z,8.17
2019-04-20T06:33:38.415Z,8.17
2019-04-20T06:37:15.724Z,8.26
2019-04-20T06:45:03.826Z,8.41
2019-04-20T06:48:45.686Z,8.46
2019-04-20T06:55:37.930Z,8.75
2019-04-20T06:59:11.543Z,8.84
2019-04-20T07:07:13.972Z,9.39
2019-04-20T07:11:03.641Z,9.51
2019-04-20T07:13:50.058Z,9.56
2019-04-20T07:16:34.556Z,9.63
2019-04-20T07:19:59.912Z,9.77
2019-04-20T07:23:53.225Z,9.94
2019-04-20T07:27:39.897Z,9.97
2019-04-20T07:31:06.607Z,10.13
2019-04-20T07:34:31.613Z,10.24
2019-04-20T07:38:23.199Z,10.36
2019-04-20T07:41:54.283Z,10.51
2019-04-20T07:45:20.965Z,10.69
2019-04-20T07:48:48.814Z,10.82
2019-04-20T07:51:28.168Z,11.01
2019-04-20T07:53:44.912Z,11.12
2019-04-20T07:57:33.925Z,11.35
2019-04-20T08:00:18.037Z,11.56
2019-04-20T08:04:07.577Z,11.86
2019-04-20T08:06:30.634Z,11.93
2019-04-20T08:09:02.263Z,11.97
2019-04-20T08:11:54.743Z,12.33
2019-04-20T08:15:48.723Z,12.53
2019-04-20T08:19:27.090Z,12.76
2019-04-20T08:22:51.463Z,12.91
2019-04-20T08:25:41.745Z,13.11
2019-04-20T08:27:25.604Z,13.21
2019-04-20T08:29:03.704Z,13.33
2019-04-20T08:31:39.703Z,13.45
2019-04-20T08:35:13.715Z,13.82
2019-04-20T08:39:12.585Z,14.03
2019-04-20T08:42:55.901Z,14.22
2019-04-20T08:46:40.169Z,14.67
2019-04-20T08:50:40.966Z,15.33
2019-04-20T08:54:06.718Z,16.28
2019-04-20T08:56:43.209Z,16.95
2019-04-20T08:58:07.326Z,17.38
2019-04-20T08:59:16.874Z,17.75
2019-04-20T09:00:49.478Z,18.12
2019-04-20T09:02:22.055Z,18.45
2019-04-20T09:04:09.642Z,18.73
2019-04-20T09:06:26.099Z,19.17
2019-04-20T09:08:44.188Z,19.56
2019-04-20T09:12:00.599Z,19.74
2019-04-20T09:14:08.658Z,20.46
2019-04-20T09:15:21.363Z,20.88
2019-04-20T09:17:01.683Z,21.35
2019-04-20T09:18:59.558Z,21.65
2019-04-20T09:21:08.392Z,22.12
2019-04-20T09:23:40.213Z,22.47
2019-04-20T09:27:00.756Z,23.55
2019-04-20T09:29:19.410Z,23.96
2019-04-20T09:31:56.951Z,24.69
2019-04-20T09:35:13.203Z,25.33
2019-04-20T09:38:04.755Z,25.76
2019-04-20T09:40:49.278Z,26.18
2019-04-20T09:42:57.730Z,26.29
2019-04-20T09:44:10.911Z,26.6
2019-04-20T09:45:44.878Z,26.61
2019-04-20T09:47:23.221Z,26.52
2019-04-20T09:49:23.560Z,26.63
2019-04-20T09:52:06.194Z,26.91
2019-04-20T09:55:02.374Z,26.78
2019-04-20T09:57:49.800Z,26.88
2019-04-20T10:00:28.760Z,26.89
2019-04-20T10:02:38.005Z,26.6
2019-04-20T10:03:52.826Z,26.6
2019-04-20T10:05:02.560Z,26.78
2019-04-20T10:06:17.708Z,27.19
2019-04-20T10:07:48.293Z,27.15
2019-04-20T10:09:15.669Z,26.93
2019-04-20T10:10:50.786Z,27.08
2019-04-20T10:12:03.601Z,27.08
2019-04-20T10:13:15.286Z,27.15
2019-04-20T10:14:28.604Z,27.07
2019-04-20T10:15:41.592Z,27.26
2019-04-20T10:16:55.776Z,27.57
2019-04-20T10:18:09.934Z,27.79
2019-04-20T10:19:37.352Z,27.85
2019-04-20T10:20:52.201Z,27.72
2019-04-20T10:22:04.909Z,27.76
2019-04-20T10:23:18.463Z,27.52
2019-04-20T10:24:30.517Z,27.4
2019-04-20T10:25:44.578Z,27.26
2019-04-20T10:26:57.077Z,26.98
2019-04-20T10:28:09.422Z,27.2
2019-04-20T10:29:21.534Z,27.53
2019-04-20T10:30:34.605Z,27.75
2019-04-20T10:32:01.579Z,27.86
2019-04-20T10:33:25.688Z,27.91
2019-04-20T10:34:37.283Z,28.15
2019-04-20T10:35:51.515Z,28.37
2019-04-20T10:37:03.943Z,28.57
2019-04-20T10:38:15.627Z,28.56
2019-04-20T10:39:28.668Z,28.65
2019-04-20T10:41:15.206Z,28.8
2019-04-20T10:42:58.430Z,29.24
2019-04-20T10:44:14.799Z,29.65
2019-04-20T10:45:26.832Z,29.96
2019-04-20T10:46:38.884Z,30.21
2019-04-20T10:47:50.715Z,30.03
2019-04-20T10:49:11.328Z,29.92
2019-04-20T10:50:24.982Z,30.29
2019-04-20T10:51:35.944Z,30.56
2019-04-20T10:52:47.930Z,30.86
2019-04-20T10:54:00.918Z,31.14
2019-04-20T10:55:12.988Z,31.29
2019-04-20T10:56:25.339Z,31.5
2019-04-20T10:57:39.572Z,31.78
2019-04-20T10:58:52.268Z,31.69
2019-04-20T11:00:05.719Z,31.7
2019-04-20T11:01:17.733Z,31.47
2019-04-20T11:02:29.783Z,31.39
2019-04-20T11:03:42.625Z,31.42
2019-04-20T11:04:54.418Z,31.28
2019-04-20T11:06:06.698Z,31.52
2019-04-20T11:07:18.435Z,31.97
2019-04-20T11:08:30.598Z,32.49
2019-04-20T11:09:42.533Z,32.68
2019-04-20T11:11:22.578Z,32.12
2019-04-20T11:12:40.541Z,31.81
2019-04-20T11:13:53.539Z,31.63
2019-04-20T11:15:26.342Z,31.57
2019-04-20T11:16:36.102Z,31.92
2019-04-20T11:17:49.093Z,31.78
2019-04-20T11:19:01.009Z,31.86
2019-04-20T11:20:12.941Z,31.64
2019-04-20T11:21:28.134Z,31.77
2019-04-20T11:22:40.463Z,31.81
2019-04-20T11:23:52.174Z,31.86
2019-04-20T11:25:04.596Z,32.15
2019-04-20T11:26:16.524Z,32.26
2019-04-20T11:27:28.266Z,32.24
2019-04-20T11:28:40.257Z,32.01
2019-04-20T11:29:52.265Z,32.15
2019-04-20T11:31:04.391Z,32.41
2019-04-20T11:32:19.917Z,32.51
2019-04-20T11:33:32.446Z,32.56
2019-04-20T11:34:49.083Z,32.67
2019-04-20T11:36:03.286Z,32.81
2019-04-20T11:37:16.913Z,32.95
2019-04-20T11:38:28.518Z,33.12
2019-04-20T11:39:39.494Z,33.29
2019-04-20T11:41:16.207Z,33.47
2019-04-20T11:42:37.784Z,33.53
2019-04-20T11:43:49.815Z,33.76
2019-04-20T11:45:02.873Z,33.97
2019-04-20T11:46:14.763Z,34.06
2019-04-20T11:47:28.125Z,33.84
2019-04-20T11:48:39.658Z,33.84
2019-04-20T11:49:51.821Z,34.21
2019-04-20T11:51:03.845Z,34.44
2019-04-20T11:52:20.112Z,34.7
2019-04-20T11:53:43.258Z,34.81
2019-04-20T11:54:55.017Z,34.89
2019-04-20T11:56:21.123Z,35.05
2019-04-20T11:57:47.083Z,35.18
2019-04-20T11:58:59.216Z,35.25
2019-04-20T12:00:11.287Z,35.22
2019-04-20T12:01:43.912Z,34.71
2019-04-20T12:03:39.099Z,34.04
2019-04-20T12:05:53.606Z,33.58
2019-04-20T12:07:15.003Z,33.17
2019-04-20T12:08:27.052Z,33.05
2019-04-20T12:09:41.606Z,32.67
2019-04-20T12:11:18.540Z,32.15
2019-04-20T12:13:06.191Z,32.64
2019-04-20T12:14:21.313Z,33.22
2019-04-20T12:15:39.343Z,33.38
2019-04-20T12:16:50.727Z,33.4
2019-04-20T12:18:02.243Z,33.51
2019-04-20T12:19:14.678Z,33.89
2019-04-20T12:20:27.339Z,34.04
2019-04-20T12:21:38.999Z,34.29
2019-04-20T12:22:52.491Z,34.51
2019-04-20T12:24:04.408Z,34.75
2019-04-20T12:25:18.180Z,34.79
2019-04-20T12:26:30.907Z,34.82
2019-04-20T12:28:00.510Z,34.94
2019-04-20T12:29:12.502Z,34.91
2019-04-20T12:30:26.285Z,34.94
2019-04-20T12:31:39.647Z,35.18
2019-04-20T12:33:09.395Z,35.26
2019-04-20T12:34:22.227Z,35.01
2019-04-20T12:35:36.102Z,35.13
2019-04-20T12:36:47.239Z,35.18
2019-04-20T12:37:59.247Z,35.13
2019-04-20T12:39:11.456Z,35.45
2019-04-20T12:40:22.366Z,35.71
2019-04-20T12:41:56.391Z,35.79
2019-04-20T12:43:16.939Z,35.54
2019-04-20T12:44:30.419Z,35.27
2019-04-20T12:45:42.025Z,35.23
2019-04-20T12:46:54.389Z,35.53
2019-04-20T12:48:06.266Z,35.79
2019-04-20T12:49:18.036Z,35.97
2019-04-20T12:50:29.979Z,35.61
2019-04-20T12:52:04.767Z,35.23
2019-04-20T12:53:20.406Z,35.41
2019-04-20T12:54:32.313Z,35.52
2019-04-20T12:55:46.768Z,35.79
2019-04-20T12:56:58.759Z,35.69
2019-04-20T12:58:10.679Z,35.59
2019-04-20T12:59:23.603Z,35.16
2019-04-20T13:00:35.669Z,34.85
2019-04-20T13:01:49.277Z,34.81
2019-04-20T13:03:01.605Z,34.86
2019-04-20T13:04:14.549Z,35.08
2019-04-20T13:05:28.031Z,35.13
2019-04-20T13:06:43.290Z,34.63
2019-04-20T13:08:07.562Z,34.46
2019-04-20T13:09:38.594Z,34.53
2019-04-20T13:10:50.590Z,34.06
2019-04-20T13:12:13.862Z,32.42
2019-04-20T13:13:26.144Z,31.92
2019-04-20T13:14:38.154Z,31.98
2019-04-20T13:15:50.110Z,32.08
2019-04-20T13:17:02.065Z,31.93
2019-04-20T13:18:14.967Z,31.81
2019-04-20T13:19:27.021Z,32.04
2019-04-20T13:20:39.706Z,32.26
2019-04-20T13:21:52.734Z,32.27
2019-04-20T13:23:10.876Z,32.34
2019-04-20T13:24:23.420Z,32.53
2019-04-20T13:25:36.760Z,32.64
2019-04-20T13:26:49.453Z,32.48
2019-04-20T13:28:01.424Z,32.27
2019-04-20T13:29:14.968Z,32.26
2019-04-20T13:30:26.373Z,32.37
2019-04-20T13:31:38.724Z,32.73
2019-04-20T13:32:51.597Z,33.04
2019-04-20T13:34:05.381Z,33.47
2019-04-20T13:35:18.248Z,33.6
2019-04-20T13:36:28.724Z,33.79
2019-04-20T13:37:45.187Z,33.51
2019-04-20T13:38:56.836Z,33.26
2019-04-20T13:40:11.030Z,33.23
2019-04-20T13:41:23.994Z,33.19
2019-04-20T13:42:38.883Z,33.4
2019-04-20T13:43:50.327Z,33.54
2019-04-20T13:45:06.801Z,33.6
2019-04-20T13:46:18.903Z,33.73
2019-04-20T13:47:30.797Z,33.77
2019-04-20T13:48:42.682Z,33.77
2019-04-20T13:49:54.998Z,33.85
2019-04-20T13:51:07.947Z,33.89
2019-04-20T13:52:19.318Z,33.84
2019-04-20T13:53:32.917Z,33.72
2019-04-20T13:54:47.447Z,33.72
2019-04-20T13:56:01.362Z,33.84
2019-04-20T13:57:13.672Z,34
2019-04-20T13:58:25.780Z,34.16
2019-04-20T13:59:40.259Z,34.18
2019-04-20T14:00:58.607Z,34.07
2019-04-20T14:02:12.912Z,33.84
2019-04-20T14:03:24.607Z,33.76
2019-04-20T14:04:36.782Z,33.98
2019-04-20T14:05:48.537Z,34.16
2019-04-20T14:07:01.567Z,34.16
2019-04-20T14:08:13.471Z,34.19
2019-04-20T14:09:25.503Z,34.29
2019-04-20T14:10:37.525Z,34.37
2019-04-20T14:11:49.442Z,34.28
2019-04-20T14:13:19.013Z,34.19
2019-04-20T14:14:43.528Z,34.28
2019-04-20T14:15:56.013Z,34.32
2019-04-20T14:17:07.955Z,34.46
2019-04-20T14:18:19.771Z,34.6
2019-04-20T14:19:32.036Z,34.5
2019-04-20T14:20:42.976Z,34.19
2019-04-20T14:21:57.069Z,34.07
2019-04-20T14:23:09.359Z,34.09
2019-04-20T14:24:21.408Z,34.18
2019-04-20T14:25:33.857Z,34.31
2019-04-20T14:26:48.475Z,34.19
2019-04-20T14:28:00.694Z,34.16
2019-04-20T14:29:12.851Z,34.26
2019-04-20T14:30:24.875Z,34.22
2019-04-20T14:31:35.164Z,34.38
2019-04-20T14:32:47.948Z,34.53
2019-04-20T14:33:59.576Z,34.69
2019-04-20T14:35:11.928Z,34.18
2019-04-20T14:36:24.300Z,33.6
2019-04-20T14:37:36.028Z,33.36
2019-04-20T14:38:52.369Z,33.26
2019-04-20T14:40:04.169Z,33.01
2019-04-20T14:41:16.145Z,33.17
2019-04-20T14:42:51.969Z,33.39
2019-04-20T14:44:07.805Z,33.35
2019-04-20T14:45:20.536Z,33.23
2019-04-20T14:46:34.015Z,33.12
2019-04-20T14:47:46.126Z,33.17
2019-04-20T14:48:59.079Z,33.35
2019-04-20T14:50:11.934Z,32.98
2019-04-20T14:51:25.649Z,32.64
2019-04-20T14:52:39.429Z,32.66
2019-04-20T14:53:51.262Z,32.79
2019-04-20T14:55:02.155Z,32.61
2019-04-20T14:56:15.607Z,32.56
2019-04-20T14:57:27.334Z,32.75
2019-04-20T14:58:43.751Z,32.71
2019-04-20T14:59:56.208Z,32.67
2019-04-20T15:01:07.165Z,32.88
2019-04-20T15:02:17.609Z,32.91
2019-04-20T15:03:30.742Z,32.9
2019-04-20T15:04:50.238Z,32.81
2019-04-20T15:06:00.286Z,32.83
2019-04-20T15:07:12.833Z,32.71
2019-04-20T15:08:25.216Z,32.73
2019-04-20T15:09:40.926Z,32.76
2019-04-20T15:10:54.627Z,32.67
2019-04-20T15:12:07.025Z,32.49
2019-04-20T15:13:20.443Z,32.31
2019-04-20T15:14:32.350Z,32.45
2019-04-20T15:15:44.276Z,32.72
2019-04-20T15:16:56.324Z,32.66
2019-04-20T15:18:09.372Z,32.26
2019-04-20T15:19:21.140Z,32.27
2019-04-20T15:20:33.125Z,32.02
2019-04-20T15:21:45.340Z,32.08
2019-04-20T15:22:57.125Z,31.95
2019-04-20T15:24:09.333Z,31.93
2019-04-20T15:25:21.265Z,31.95
2019-04-20T15:26:31.426Z,31.73
2019-04-20T15:27:47.773Z,31.51
2019-04-20T15:29:00.024Z,31.37
2019-04-20T15:30:12.062Z,31.25
2019-04-20T15:31:23.795Z,31.17
2019-04-20T15:32:36.794Z,31.13
2019-04-20T15:33:48.823Z,31.28
2019-04-20T15:35:00.677Z,31.1
2019-04-20T15:36:13.791Z,31
2019-04-20T15:37:26.629Z,30.95
2019-04-20T15:38:38.784Z,31
2019-04-20T15:39:50.613Z,31.15
2019-04-20T15:41:02.971Z,31.11
2019-04-20T15:42:21.178Z,31.07
2019-04-20T15:43:33.180Z,31.05
2019-04-20T15:44:45.422Z,31.17
2019-04-20T15:45:57.553Z,31.2
2019-04-20T15:47:09.476Z,31.18
2019-04-20T15:48:23.601Z,31.23
2019-04-20T15:49:35.753Z,31.29
2019-04-20T15:50:49.781Z,31.28
2019-04-20T15:52:03.795Z,31.07
2019-04-20T15:53:23.622Z,30.76
2019-04-20T15:54:35.597Z,30.77
2019-04-20T15:55:52.279Z,31.04
2019-04-20T15:57:23.034Z,31.13
2019-04-20T15:58:40.590Z,31.17
2019-04-20T15:59:53.340Z,31.13
2019-04-20T16:01:05.281Z,30.51
2019-04-20T16:02:18.735Z,30.18
2019-04-20T16:03:30.281Z,30.1
2019-04-20T16:04:48.664Z,30.01
2019-04-20T16:06:03.092Z,29.86
2019-04-20T16:07:15.535Z,29.87
2019-04-20T16:08:28.360Z,29.65
2019-04-20T16:09:44.194Z,29.73
2019-04-20T16:10:59.241Z,29.73
2019-04-20T16:12:12.935Z,29.99
2019-04-20T16:13:43.947Z,29.89
2019-04-20T16:15:04.510Z,29.73
2019-04-20T16:16:19.576Z,29.92
2019-04-20T16:17:51.527Z,29.96
2019-04-20T16:19:25.593Z,29.65
2019-04-20T16:21:22.028Z,29.43
2019-04-20T16:22:42.978Z,29.24
2019-04-20T16:23:56.796Z,29.03
2019-04-20T16:25:09.506Z,29.16
2019-04-20T16:26:21.667Z,29.13
2019-04-20T16:27:34.110Z,29.07
2019-04-20T16:28:48.239Z,29.05
2019-04-20T16:30:00.099Z,29.09
2019-04-20T16:31:18.307Z,29.18
2019-04-20T16:32:30.347Z,28.71
2019-04-20T16:33:42.191Z,28.35
2019-04-20T16:34:56.102Z,28.13
2019-04-20T16:36:08.269Z,28
2019-04-20T16:37:20.127Z,27.83
2019-04-20T16:38:35.524Z,27.72
2019-04-20T16:39:50.322Z,27.61
2019-04-20T16:41:02.236Z,27.47
2019-04-20T16:42:14.394Z,27.48
2019-04-20T16:43:42.951Z,27.83
2019-04-20T16:44:59.458Z,27.85
2019-04-20T16:46:11.383Z,27.52
2019-04-20T16:47:32.021Z,27.23
2019-04-20T16:48:44.207Z,26.97
2019-04-20T16:49:56.988Z,27.1
2019-04-20T16:51:08.928Z,27.35
2019-04-20T16:52:21.099Z,27.5
2019-04-20T16:53:32.852Z,27.38
2019-04-20T16:54:46.228Z,27.5
2019-04-20T16:55:58.683Z,27.47
2019-04-20T16:57:14.575Z,27.52
2019-04-20T16:58:27.994Z,27.4
2019-04-20T16:59:56.378Z,27.3
2019-04-20T17:01:12.046Z,27.22
2019-04-20T17:02:26.449Z,27.2
2019-04-20T17:04:07.110Z,27.37
2019-04-20T17:05:29.841Z,27.19
2019-04-20T17:06:40.819Z,27.13
2019-04-20T17:07:55.257Z,26.73
2019-04-20T17:09:07.376Z,26.59
2019-04-20T17:10:23.806Z,26.55
2019-04-20T17:11:36.285Z,26.39
2019-04-20T17:12:48.361Z,26.3
2019-04-20T17:14:06.630Z,26.3
2019-04-20T17:15:19.373Z,26.19
2019-04-20T17:16:31.643Z,26.07
2019-04-20T17:17:43.337Z,26.01
2019-04-20T17:19:01.606Z,25.93
2019-04-20T17:20:13.549Z,25.78
2019-04-20T17:21:35.544Z,25.83
2019-04-20T17:22:47.021Z,25.96
2019-04-20T17:24:01.463Z,25.86
2019-04-20T17:25:14.632Z,25.68
2019-04-20T17:26:25.585Z,25.41
2019-04-20T17:27:39.532Z,25.51
2019-04-20T17:28:53.733Z,25.43
2019-04-20T17:30:10.492Z,25.29
2019-04-20T17:31:29.245Z,25.18
2019-04-20T17:32:43.347Z,25.03
2019-04-20T17:34:40.622Z,25.06
2019-04-20T17:36:40.140Z,24.77
2019-04-20T17:37:56.414Z,24.51
2019-04-20T17:39:37.879Z,24.44
2019-04-20T17:42:44.568Z,24.28
2019-04-20T17:45:00.414Z,24.28
2019-04-20T17:47:30.015Z,24.09
2019-04-20T17:50:19.809Z,23.86
2019-04-20T17:53:20.221Z,23.77
2019-04-20T17:54:58.411Z,23.58
2019-04-20T17:56:13.291Z,23.44
2019-04-20T17:57:25.618Z,23.29
2019-04-20T17:58:43.865Z,23.13
2019-04-20T18:00:11.419Z,23.08
2019-04-20T18:02:15.095Z,22.74
2019-04-20T18:05:26.748Z,22.47
2019-04-20T18:08:35.028Z,22.33
2019-04-20T18:11:07.614Z,21.85
2019-04-20T18:12:53.864Z,21.56
2019-04-20T18:15:22.599Z,21.56
2019-04-20T18:18:18.576Z,21.37
2019-04-20T18:20:05.391Z,21.28
2019-04-20T18:21:19.386Z,21.3
2019-04-20T18:22:31.761Z,21.37
2019-04-20T18:23:56.129Z,21.35
2019-04-20T18:26:31.518Z,21.38
2019-04-20T18:29:51.107Z,21.41
2019-04-20T18:31:39.570Z,21.23
2019-04-20T18:32:51.277Z,21.1
2019-04-20T18:34:22.584Z,21.07
2019-04-20T18:35:47.814Z,21.14
2019-04-20T18:37:11.902Z,21.05
2019-04-20T18:38:53.929Z,20.78
2019-04-20T18:40:53.281Z,20.71
2019-04-20T18:42:44.130Z,20.67
2019-04-20T18:44:19.913Z,20.66
2019-04-20T18:47:45.079Z,20.44
2019-04-20T18:50:21.132Z,20.24
2019-04-20T18:51:48.744Z,20
2019-04-20T18:53:03.437Z,20
2019-04-20T18:54:38.962Z,19.77
2019-04-20T18:56:08.071Z,19.74
2019-04-20T18:57:36.639Z,19.78
2019-04-20T18:58:51.163Z,19.77
2019-04-20T19:00:07.804Z,19.57
2019-04-20T19:01:46.718Z,19.38
2019-04-20T19:03:20.067Z,19.38
2019-04-20T19:04:47.959Z,19.23
2019-04-20T19:06:02.032Z,19.22
2019-04-20T19:07:19.992Z,19.19
2019-04-20T19:08:51.807Z,19.07
2019-04-20T19:10:31.247Z,18.91
2019-04-20T19:12:08.015Z,18.86
2019-04-20T19:13:41.423Z,18.81
2019-04-20T19:15:55.863Z,18.71
2019-04-20T19:18:23.692Z,18.67
2019-04-20T19:20:14.447Z,18.63
2019-04-20T19:21:33.241Z,18.57
2019-04-20T19:22:46.473Z,18.6
2019-04-20T19:24:16.663Z,18.48
2019-04-20T19:25:46.199Z,18.31
2019-04-20T19:27:19.583Z,18.28
2019-04-20T19:29:20.350Z,18.28
2019-04-20T19:31:49.652Z,18.16
2019-04-20T19:34:44.776Z,17.91
2019-04-20T19:36:58.976Z,17.82
2019-04-20T19:39:21.152Z,17.66
2019-04-20T19:41:55.452Z,17.63
2019-04-20T19:44:24.623Z,17.52
2019-04-20T19:47:42.567Z,17.23
2019-04-20T19:50:24.930Z,17.14
2019-04-20T19:53:46.467Z,16.99
2019-04-20T19:56:44.844Z,16.87
2019-04-20T19:59:23.176Z,16.82
2019-04-20T20:01:01.589Z,16.68
2019-04-20T20:02:16.140Z,16.55
2019-04-20T20:03:28.229Z,16.49
2019-04-20T20:04:59.168Z,16.55
2019-04-20T20:06:45.932Z,16.41
2019-04-20T20:08:31.517Z,16.43
2019-04-20T20:10:08.638Z,16.46
2019-04-20T20:11:42.819Z,16.39
2019-04-20T20:13:08.151Z,16.32
2019-04-20T20:14:44.061Z,16.32
2019-04-20T20:16:26.990Z,16.32
2019-04-20T20:19:05.681Z,16.12
2019-04-20T20:21:58.838Z,16.08
2019-04-20T20:23:38.999Z,16.13
2019-04-20T20:24:51.176Z,16.1
2019-04-20T20:26:19.535Z,16.08
2019-04-20T20:28:30.410Z,16.02
2019-04-20T20:30:35.190Z,15.84
2019-04-20T20:33:34.595Z,15.94
2019-04-20T20:35:44.020Z,15.75
2019-04-20T20:37:56.932Z,15.81
2019-04-20T20:39:40.824Z,15.8
2019-04-20T20:42:01.223Z,15.62
2019-04-20T20:44:22.129Z,15.6
2019-04-20T20:46:34.673Z,15.59
2019-04-20T20:49:26.499Z,15.51
2019-04-20T20:52:36.634Z,15.41
2019-04-20T20:55:03.565Z,15.26
2019-04-20T20:57:13.134Z,15.33
2019-04-20T20:59:26.551Z,15.26
2019-04-20T21:01:26.377Z,15.22
2019-04-20T21:03:22.056Z,15.19
2019-04-20T21:04:51.401Z,15.17
2019-04-20T21:06:03.384Z,15.08
2019-04-20T21:07:16.380Z,15.1
2019-04-20T21:08:29.297Z,15.11
2019-04-20T21:09:58.345Z,15.19
2019-04-20T21:11:29.247Z,15.1
2019-04-20T21:13:03.360Z,15.07
2019-04-20T21:14:36.803Z,14.99
2019-04-20T21:16:18.562Z,14.99
2019-04-20T21:18:36.455Z,14.99
2019-04-20T21:21:27.282Z,14.92
2019-04-20T21:23:47.836Z,14.79
2019-04-20T21:25:18.923Z,14.71
2019-04-20T21:26:50.159Z,14.63
2019-04-20T21:28:06.749Z,14.62
2019-04-20T21:29:35.525Z,14.59
2019-04-20T21:31:22.259Z,14.61
2019-04-20T21:32:56.362Z,14.61
2019-04-20T21:34:25.522Z,14.62
2019-04-20T21:35:50.446Z,14.63
2019-04-20T21:37:19.947Z,14.51
2019-04-20T21:38:46.458Z,14.55
2019-04-20T21:40:26.645Z,14.56
2019-04-20T21:42:12.409Z,14.49
2019-04-20T21:43:44.518Z,14.48
2019-04-20T21:45:23.499Z,14.43
2019-04-20T21:46:58.553Z,14.26
2019-04-20T21:49:05.057Z,14.28
2019-04-20T21:51:44.055Z,14.13
2019-04-20T21:53:31.696Z,14.11
2019-04-20T21:54:48.129Z,14.13
2019-04-20T21:56:00.058Z,14.11
2019-04-20T21:57:19.906Z,14.03
2019-04-20T21:58:50.335Z,13.97
2019-04-20T22:00:49.927Z,14.01
2019-04-20T22:02:56.806Z,13.89
2019-04-20T22:04:19.754Z,13.91
2019-04-20T22:05:30.707Z,13.87
2019-04-20T22:06:44.661Z,13.89
2019-04-20T22:08:08.930Z,13.78
2019-04-20T22:09:40.161Z,13.65
2019-04-20T22:11:03.835Z,13.67
2019-04-20T22:12:15.876Z,13.6
2019-04-20T22:13:43.581Z,13.68
2019-04-20T22:15:25.904Z,13.61
2019-04-20T22:17:02.567Z,13.58
2019-04-20T22:18:27.036Z,13.57
2019-04-20T22:20:33.016Z,13.46
2019-04-20T22:23:05.534Z,13.45
2019-04-20T22:26:10.203Z,13.33
2019-04-20T22:27:54.770Z,13.4
2019-04-20T22:29:14.204Z,13.24
2019-04-20T22:30:28.118Z,13.24
2019-04-20T22:31:38.589Z,13.2
2019-04-20T22:33:09.958Z,13.21
2019-04-20T22:34:40.147Z,13.17
2019-04-20T22:36:16.467Z,13.13
2019-04-20T22:37:40.607Z,13.06
2019-04-20T22:39:03.324Z,13.11
2019-04-20T22:40:33.886Z,13.03
2019-04-20T22:42:04.807Z,12.98
2019-04-20T22:43:40.221Z,12.99
2019-04-20T22:45:12.190Z,12.91
2019-04-20T22:46:40.804Z,12.91
2019-04-20T22:48:12.735Z,12.87
2019-04-20T22:50:33.143Z,12.87
2019-04-20T22:53:17.754Z,12.88
2019-04-20T22:56:18.509Z,12.8
2019-04-20T22:58:48.437Z,12.78
2019-04-20T23:00:47.243Z,12.7
2019-04-20T23:02:26.859Z,12.63
2019-04-20T23:03:40.976Z,12.58
2019-04-20T23:04:52.736Z,12.62
2019-04-20T23:06:04.729Z,12.54
2019-04-20T23:07:17.145Z,12.48
2019-04-20T23:08:30.750Z,12.47
2019-04-20T23:09:59.456Z,12.43
2019-04-20T23:11:33.305Z,12.3
2019-04-20T23:12:59.628Z,12.35
2019-04-20T23:14:11.357Z,12.3
2019-04-20T23:15:25.891Z,12.29